BCS138 EDDP-LIMC
Flight info
| Callsign | BCS138 |
|---|---|
| Flight time | 1h 6m |
| Altitude | 37000 |
| Route | NEVKO2E/08R NEVKO Q243 BAMKI Z94 KOMIB DCT TEDGO DCT SONOM DCT GERSA DCT SOSON DCT DEGAD Z424 RIXUV |
| Aircraft | B752/M-SDE3FGHIM3RWXY/LB1 |
Departure
| Time | 2026-05-07 19:18 |
|---|---|
| Airport | Leipzig/Halle Airport (EDDP) |
Arrival
| Time | 2026-05-07 20:25 |
|---|---|
| Airport | Milan Malpensa International Airport (LIMC) |
| Time | Latitude | Longitude | Altitude | Speed | Heading |
|---|---|---|---|---|---|
| 2026-05-07 18:48 | 51.40817 | 12.23897 | 483 ft | 0 kts | 85° |
| 2026-05-07 18:53 | 51.40817 | 12.23896 | 482 ft | 0 kts | 85° |
| 2026-05-07 19:04 | 51.40816 | 12.23877 | 482 ft | 2 kts | 85° |
| 2026-05-07 19:04 | 51.40815 | 12.23853 | 482 ft | 2 kts | 86° |
| 2026-05-07 19:04 | 51.40814 | 12.23829 | 482 ft | 2 kts | 85° |
| 2026-05-07 19:04 | 51.40813 | 12.23814 | 482 ft | 2 kts | 85° |
| 2026-05-07 19:05 | 51.40808 | 12.23792 | 482 ft | 2 kts | 47° |
| 2026-05-07 19:05 | 51.40796 | 12.23779 | 482 ft | 2 kts | 15° |
| 2026-05-07 19:05 | 51.40787 | 12.23777 | 482 ft | 0 kts | 355° |
| 2026-05-07 19:05 | 51.40781 | 12.23778 | 482 ft | 0 kts | 354° |
| 2026-05-07 19:08 | 51.40800 | 12.23776 | 482 ft | 4 kts | 356° |
| 2026-05-07 19:08 | 51.40838 | 12.23772 | 482 ft | 6 kts | 356° |
| 2026-05-07 19:08 | 51.40884 | 12.23767 | 482 ft | 6 kts | 355° |
| 2026-05-07 19:08 | 51.40934 | 12.23760 | 482 ft | 7 kts | 355° |
| 2026-05-07 19:09 | 51.40986 | 12.23753 | 482 ft | 7 kts | 355° |
| 2026-05-07 19:09 | 51.41034 | 12.23734 | 482 ft | 6 kts | 323° |
| 2026-05-07 19:09 | 51.41047 | 12.23609 | 482 ft | 19 kts | 267° |
| 2026-05-07 19:09 | 51.41037 | 12.23372 | 482 ft | 21 kts | 265° |
| 2026-05-07 19:10 | 51.41026 | 12.23135 | 482 ft | 21 kts | 265° |
| 2026-05-07 19:10 | 51.41015 | 12.22899 | 482 ft | 21 kts | 266° |
| 2026-05-07 19:10 | 51.41002 | 12.22620 | 482 ft | 26 kts | 265° |
| 2026-05-07 19:10 | 51.40993 | 12.22424 | 482 ft | 11 kts | 265° |
| 2026-05-07 19:11 | 51.41002 | 12.22349 | 482 ft | 3 kts | 306° |
| 2026-05-07 19:11 | 51.41036 | 12.22310 | 482 ft | 7 kts | 337° |
| 2026-05-07 19:11 | 51.41071 | 12.22235 | 482 ft | 10 kts | 275° |
| 2026-05-07 19:11 | 51.41065 | 12.22098 | 482 ft | 14 kts | 266° |
| 2026-05-07 19:12 | 51.41057 | 12.21929 | 482 ft | 17 kts | 265° |
| 2026-05-07 19:12 | 51.41048 | 12.21717 | 482 ft | 20 kts | 265° |
| 2026-05-07 19:12 | 51.41036 | 12.21470 | 482 ft | 23 kts | 265° |
| 2026-05-07 19:12 | 51.41022 | 12.21186 | 482 ft | 27 kts | 265° |
| 2026-05-07 19:13 | 51.41008 | 12.20883 | 482 ft | 23 kts | 265° |
| 2026-05-07 19:13 | 51.41000 | 12.20730 | 482 ft | 7 kts | 265° |
| 2026-05-07 19:13 | 51.40997 | 12.20648 | 482 ft | 7 kts | 265° |
| 2026-05-07 19:13 | 51.40995 | 12.20606 | 482 ft | 0 kts | 265° |
| 2026-05-07 19:14 | 51.40994 | 12.20604 | 482 ft | 1 kts | 265° |
| 2026-05-07 19:14 | 51.40993 | 12.20585 | 482 ft | 0 kts | 266° |
| 2026-05-07 19:14 | 51.40993 | 12.20570 | 482 ft | 3 kts | 269° |
| 2026-05-07 19:15 | 51.40999 | 12.20520 | 482 ft | 2 kts | 295° |
| 2026-05-07 19:15 | 51.41018 | 12.20495 | 482 ft | 3 kts | 335° |
| 2026-05-07 19:15 | 51.41024 | 12.20491 | 482 ft | 0 kts | 343° |
| 2026-05-07 19:15 | 51.41027 | 12.20490 | 482 ft | 2 kts | 347° |
| 2026-05-07 19:16 | 51.41030 | 12.20489 | 482 ft | 0 kts | 350° |
| 2026-05-07 19:16 | 51.41033 | 12.20488 | 482 ft | 0 kts | 353° |
| 2026-05-07 19:16 | 51.41046 | 12.20487 | 482 ft | 4 kts | 2° |
| 2026-05-07 19:16 | 51.41090 | 12.20501 | 482 ft | 8 kts | 12° |
| 2026-05-07 19:17 | 51.41147 | 12.20520 | 482 ft | 6 kts | 14° |
| 2026-05-07 19:17 | 51.41164 | 12.20565 | 482 ft | 4 kts | 86° |
| 2026-05-07 19:17 | 51.41164 | 12.20567 | 482 ft | 0 kts | 86° |
| 2026-05-07 19:17 | 51.41164 | 12.20574 | 482 ft | 4 kts | 86° |
| 2026-05-07 19:18 | 51.41178 | 12.20887 | 482 ft | 62 kts | 85° |
| 2026-05-07 19:18 | 51.41230 | 12.21981 | 483 ft | 132 kts | 84° |
| 2026-05-07 19:18 | 51.41314 | 12.23736 | 647 ft | 177 kts | 83° |
| 2026-05-07 19:18 | 51.41456 | 12.25792 | 1318 ft | 194 kts | 79° |
| 2026-05-07 19:19 | 51.41623 | 12.28033 | 2020 ft | 217 kts | 82° |
| 2026-05-07 19:19 | 51.41765 | 12.30552 | 2851 ft | 234 kts | 83° |
| 2026-05-07 19:19 | 51.41888 | 12.33111 | 3767 ft | 238 kts | 83° |
| 2026-05-07 19:19 | 51.42010 | 12.35864 | 4353 ft | 257 kts | 83° |
| 2026-05-07 19:20 | 51.42127 | 12.38725 | 5193 ft | 264 kts | 84° |
| 2026-05-07 19:20 | 51.42240 | 12.41638 | 6130 ft | 267 kts | 85° |
| 2026-05-07 19:20 | 51.42354 | 12.44621 | 7019 ft | 271 kts | 84° |
| 2026-05-07 19:20 | 51.42465 | 12.47663 | 7839 ft | 276 kts | 86° |
| 2026-05-07 19:21 | 51.42207 | 12.50690 | 8637 ft | 284 kts | 110° |
| 2026-05-07 19:21 | 51.41103 | 12.53281 | 9432 ft | 290 kts | 138° |
| 2026-05-07 19:21 | 51.39327 | 12.54866 | 10195 ft | 296 kts | 165° |
| 2026-05-07 19:21 | 51.37284 | 12.55300 | 10698 ft | 310 kts | 176° |
| 2026-05-07 19:22 | 51.35072 | 12.55541 | 11186 ft | 324 kts | 175° |
| 2026-05-07 19:22 | 51.32798 | 12.55754 | 11701 ft | 337 kts | 181° |
| 2026-05-07 19:22 | 51.30476 | 12.55156 | 12225 ft | 346 kts | 199° |
| 2026-05-07 19:22 | 51.28286 | 12.53430 | 12757 ft | 355 kts | 216° |
| 2026-05-07 19:23 | 51.26472 | 12.50734 | 13277 ft | 363 kts | 233° |
| 2026-05-07 19:23 | 51.25183 | 12.47280 | 13796 ft | 369 kts | 249° |
| 2026-05-07 19:23 | 51.24497 | 12.43268 | 14096 ft | 382 kts | 263° |
| 2026-05-07 19:23 | 51.24353 | 12.39052 | 14075 ft | 384 kts | 269° |
| 2026-05-07 19:24 | 51.24174 | 12.34807 | 14065 ft | 380 kts | 261° |
| 2026-05-07 19:24 | 51.23491 | 12.30673 | 14142 ft | 390 kts | 251° |
| 2026-05-07 19:24 | 51.22447 | 12.26722 | 15003 ft | 387 kts | 247° |
| 2026-05-07 19:24 | 51.21267 | 12.22854 | 15569 ft | 394 kts | 244° |
| 2026-05-07 19:25 | 51.19959 | 12.19022 | 16225 ft | 397 kts | 242° |
| 2026-05-07 19:25 | 51.18593 | 12.15197 | 16792 ft | 402 kts | 241° |
| 2026-05-07 19:25 | 51.17179 | 12.11374 | 17449 ft | 404 kts | 240° |
| 2026-05-07 19:25 | 51.15728 | 12.07518 | 18043 ft | 408 kts | 240° |
| 2026-05-07 19:26 | 51.14250 | 12.03638 | 18644 ft | 411 kts | 240° |
| 2026-05-07 19:26 | 51.12767 | 11.99766 | 19082 ft | 417 kts | 240° |
| 2026-05-07 19:26 | 51.11234 | 11.95786 | 19078 ft | 419 kts | 240° |
| 2026-05-07 19:26 | 51.09741 | 11.91926 | 19076 ft | 411 kts | 240° |
| 2026-05-07 19:27 | 51.08245 | 11.88062 | 19080 ft | 412 kts | 240° |
| 2026-05-07 19:27 | 51.06731 | 11.84164 | 19076 ft | 413 kts | 240° |
| 2026-05-07 19:27 | 51.05226 | 11.80292 | 19072 ft | 412 kts | 240° |
| 2026-05-07 19:27 | 51.03724 | 11.76433 | 19063 ft | 411 kts | 240° |
| 2026-05-07 19:28 | 51.02213 | 11.72562 | 19209 ft | 417 kts | 240° |
| 2026-05-07 19:28 | 51.00706 | 11.68709 | 19962 ft | 415 kts | 240° |
| 2026-05-07 19:28 | 50.99179 | 11.64805 | 20452 ft | 420 kts | 240° |
| 2026-05-07 19:28 | 50.97630 | 11.60853 | 21030 ft | 423 kts | 240° |
| 2026-05-07 19:29 | 50.96079 | 11.56903 | 21566 ft | 426 kts | 239° |
| 2026-05-07 19:29 | 50.94499 | 11.52890 | 22092 ft | 429 kts | 240° |
| 2026-05-07 19:29 | 50.92931 | 11.48903 | 22598 ft | 432 kts | 239° |
| 2026-05-07 19:29 | 50.91329 | 11.44842 | 23097 ft | 435 kts | 239° |
| 2026-05-07 19:30 | 50.89731 | 11.40797 | 23574 ft | 437 kts | 239° |
| 2026-05-07 19:30 | 50.88116 | 11.36714 | 24057 ft | 440 kts | 239° |
| 2026-05-07 19:30 | 50.86483 | 11.32597 | 24511 ft | 443 kts | 238° |
| 2026-05-07 19:30 | 50.84662 | 11.28584 | 25014 ft | 446 kts | 233° |
| 2026-05-07 19:31 | 50.82784 | 11.24676 | 25522 ft | 449 kts | 233° |
| 2026-05-07 19:31 | 50.80875 | 11.20716 | 26021 ft | 452 kts | 233° |
| 2026-05-07 19:31 | 50.78977 | 11.16792 | 26483 ft | 455 kts | 233° |
| 2026-05-07 19:31 | 50.77040 | 11.12800 | 26956 ft | 458 kts | 233° |
| 2026-05-07 19:32 | 50.75118 | 11.08850 | 27398 ft | 460 kts | 233° |
| 2026-05-07 19:32 | 50.73138 | 11.04878 | 27855 ft | 463 kts | 230° |
| 2026-05-07 19:32 | 50.70826 | 11.01299 | 28234 ft | 468 kts | 220° |
| 2026-05-07 19:32 | 50.68210 | 10.98249 | 28638 ft | 471 kts | 216° |
| 2026-05-07 19:33 | 50.65535 | 10.95254 | 29056 ft | 473 kts | 216° |
| 2026-05-07 19:33 | 50.62851 | 10.92274 | 29411 ft | 476 kts | 216° |
| 2026-05-07 19:33 | 50.60153 | 10.89298 | 29806 ft | 478 kts | 216° |
| 2026-05-07 19:33 | 50.57436 | 10.86314 | 30044 ft | 476 kts | 216° |
| 2026-05-07 19:34 | 50.52016 | 10.80386 | 30031 ft | 472 kts | 216° |
| 2026-05-07 19:34 | 50.46639 | 10.74530 | 30035 ft | 473 kts | 216° |
| 2026-05-07 19:35 | 50.41231 | 10.68658 | 30034 ft | 473 kts | 216° |
| 2026-05-07 19:35 | 50.35856 | 10.62834 | 30045 ft | 478 kts | 216° |
| 2026-05-07 19:36 | 50.33071 | 10.59829 | 30306 ft | 483 kts | 216° |
| 2026-05-07 19:36 | 50.30306 | 10.56854 | 30652 ft | 485 kts | 216° |
| 2026-05-07 19:36 | 50.27542 | 10.53884 | 31180 ft | 483 kts | 216° |
| 2026-05-07 19:36 | 50.24807 | 10.50950 | 31595 ft | 482 kts | 216° |
| 2026-05-07 19:37 | 50.22166 | 10.47748 | 31962 ft | 479 kts | 224° |
| 2026-05-07 19:37 | 50.19796 | 10.44078 | 32352 ft | 477 kts | 227° |
| 2026-05-07 19:37 | 50.17481 | 10.40408 | 32656 ft | 476 kts | 227° |
| 2026-05-07 19:37 | 50.15173 | 10.36747 | 32949 ft | 475 kts | 227° |
| 2026-05-07 19:38 | 50.12849 | 10.33056 | 33223 ft | 475 kts | 226° |
| 2026-05-07 19:38 | 50.10545 | 10.29398 | 33499 ft | 474 kts | 226° |
| 2026-05-07 19:38 | 50.08669 | 10.26694 | 33691 ft | 474 kts | 220° |
| 2026-05-07 19:38 | 50.05932 | 10.23755 | 33955 ft | 475 kts | 210° |
| 2026-05-07 19:39 | 50.02990 | 10.21477 | 34217 ft | 475 kts | 206° |
| 2026-05-07 19:39 | 49.99987 | 10.19315 | 34495 ft | 474 kts | 206° |
| 2026-05-07 19:39 | 49.97002 | 10.17185 | 34795 ft | 472 kts | 206° |
| 2026-05-07 19:39 | 49.95032 | 10.15793 | 34994 ft | 470 kts | 206° |
| 2026-05-07 19:40 | 49.91065 | 10.13010 | 35373 ft | 468 kts | 205° |
| 2026-05-07 19:40 | 49.88106 | 10.10947 | 35636 ft | 467 kts | 205° |
| 2026-05-07 19:40 | 49.85160 | 10.08901 | 35903 ft | 465 kts | 205° |
| 2026-05-07 19:40 | 49.82219 | 10.06864 | 36139 ft | 464 kts | 205° |
| 2026-05-07 19:41 | 49.79269 | 10.04826 | 36407 ft | 462 kts | 205° |
| 2026-05-07 19:41 | 49.76345 | 10.02809 | 36592 ft | 463 kts | 205° |
| 2026-05-07 19:41 | 49.73384 | 10.00770 | 36823 ft | 462 kts | 205° |
| 2026-05-07 19:41 | 49.70466 | 9.98764 | 37018 ft | 460 kts | 205° |
| 2026-05-07 19:42 | 49.64681 | 9.94796 | 37053 ft | 458 kts | 206° |
| 2026-05-07 19:42 | 49.58841 | 9.90800 | 37051 ft | 460 kts | 206° |
| 2026-05-07 19:43 | 49.53009 | 9.86822 | 37057 ft | 459 kts | 206° |
| 2026-05-07 19:43 | 49.47163 | 9.82844 | 37054 ft | 458 kts | 206° |
| 2026-05-07 19:44 | 49.41359 | 9.78905 | 37050 ft | 458 kts | 206° |
| 2026-05-07 19:44 | 49.35520 | 9.74952 | 37056 ft | 458 kts | 206° |
| 2026-05-07 19:45 | 49.29680 | 9.71009 | 37053 ft | 458 kts | 206° |
| 2026-05-07 19:45 | 49.23867 | 9.67095 | 37050 ft | 458 kts | 206° |
| 2026-05-07 19:46 | 49.18034 | 9.63178 | 37055 ft | 457 kts | 206° |
| 2026-05-07 19:46 | 49.12233 | 9.59291 | 37054 ft | 457 kts | 206° |
| 2026-05-07 19:47 | 49.06420 | 9.55407 | 37047 ft | 457 kts | 206° |
| 2026-05-07 19:47 | 49.00607 | 9.51533 | 37038 ft | 456 kts | 206° |
| 2026-05-07 19:48 | 48.94781 | 9.47660 | 37042 ft | 457 kts | 206° |
| 2026-05-07 19:48 | 48.88977 | 9.43811 | 37033 ft | 456 kts | 206° |
| 2026-05-07 19:49 | 48.83179 | 9.39976 | 37027 ft | 456 kts | 206° |
| 2026-05-07 19:49 | 48.77790 | 9.36420 | 37032 ft | 456 kts | 206° |
| 2026-05-07 19:50 | 48.72066 | 9.32652 | 37041 ft | 456 kts | 206° |
| 2026-05-07 19:50 | 48.66538 | 9.29022 | 37040 ft | 456 kts | 206° |
| 2026-05-07 19:51 | 48.60910 | 9.25615 | 37043 ft | 458 kts | 199° |
| 2026-05-07 19:51 | 48.54798 | 9.22869 | 37026 ft | 458 kts | 199° |
| 2026-05-07 19:52 | 48.48693 | 9.20151 | 37023 ft | 458 kts | 199° |
| 2026-05-07 19:52 | 48.42569 | 9.17449 | 37010 ft | 459 kts | 199° |
| 2026-05-07 19:53 | 48.36460 | 9.14765 | 37021 ft | 458 kts | 199° |
| 2026-05-07 19:53 | 48.30346 | 9.12089 | 37009 ft | 458 kts | 199° |
| 2026-05-07 19:54 | 48.24204 | 9.09407 | 37007 ft | 458 kts | 199° |
| 2026-05-07 19:54 | 48.21175 | 9.08088 | 37152 ft | 455 kts | 199° |
| 2026-05-07 19:54 | 48.18087 | 9.06743 | 37018 ft | 461 kts | 199° |
| 2026-05-07 19:55 | 48.15015 | 9.05409 | 36886 ft | 456 kts | 199° |
| 2026-05-07 19:55 | 48.12009 | 9.04105 | 37018 ft | 456 kts | 199° |
| 2026-05-07 19:55 | 48.05883 | 9.01450 | 37009 ft | 459 kts | 199° |
| 2026-05-07 19:56 | 47.99764 | 8.98806 | 37009 ft | 456 kts | 199° |
| 2026-05-07 19:56 | 47.93681 | 8.96183 | 37019 ft | 457 kts | 199° |
| 2026-05-07 19:57 | 47.87561 | 8.93551 | 37010 ft | 457 kts | 199° |
| 2026-05-07 19:57 | 47.81443 | 8.90929 | 37012 ft | 456 kts | 199° |
| 2026-05-07 19:58 | 47.75278 | 8.88770 | 37019 ft | 459 kts | 194° |
| 2026-05-07 19:58 | 47.69038 | 8.86944 | 37018 ft | 458 kts | 194° |
| 2026-05-07 19:59 | 47.62783 | 8.85135 | 37023 ft | 458 kts | 194° |
| 2026-05-07 19:59 | 47.56518 | 8.83334 | 37025 ft | 457 kts | 194° |
| 2026-05-07 20:00 | 47.50289 | 8.81551 | 37022 ft | 458 kts | 194° |
| 2026-05-07 20:00 | 47.44025 | 8.79763 | 37024 ft | 457 kts | 194° |
| 2026-05-07 20:01 | 47.37787 | 8.77989 | 37024 ft | 457 kts | 195° |
| 2026-05-07 20:01 | 47.31546 | 8.76216 | 37032 ft | 457 kts | 195° |
| 2026-05-07 20:02 | 47.25336 | 8.74459 | 37028 ft | 455 kts | 195° |
| 2026-05-07 20:02 | 47.19129 | 8.72704 | 36910 ft | 457 kts | 195° |
| 2026-05-07 20:03 | 47.16042 | 8.71836 | 36661 ft | 450 kts | 195° |
| 2026-05-07 20:03 | 47.13022 | 8.70988 | 36407 ft | 438 kts | 195° |
| 2026-05-07 20:03 | 47.10045 | 8.70150 | 36174 ft | 432 kts | 195° |
| 2026-05-07 20:03 | 47.07104 | 8.69321 | 35964 ft | 434 kts | 195° |
| 2026-05-07 20:04 | 47.04088 | 8.68472 | 35791 ft | 439 kts | 195° |
| 2026-05-07 20:04 | 47.01093 | 8.67631 | 35637 ft | 440 kts | 195° |
| 2026-05-07 20:04 | 46.98091 | 8.66791 | 35442 ft | 441 kts | 195° |
| 2026-05-07 20:04 | 46.95090 | 8.65951 | 35025 ft | 443 kts | 196° |
| 2026-05-07 20:05 | 46.92054 | 8.65104 | 34570 ft | 442 kts | 196° |
| 2026-05-07 20:05 | 46.89045 | 8.64264 | 34015 ft | 440 kts | 196° |
| 2026-05-07 20:05 | 46.86171 | 8.63462 | 33470 ft | 440 kts | 196° |
| 2026-05-07 20:05 | 46.83183 | 8.62628 | 32904 ft | 442 kts | 196° |
| 2026-05-07 20:06 | 46.80157 | 8.61786 | 32329 ft | 446 kts | 195° |
| 2026-05-07 20:06 | 46.77124 | 8.60942 | 31748 ft | 447 kts | 195° |
| 2026-05-07 20:06 | 46.74060 | 8.60093 | 31159 ft | 448 kts | 195° |
| 2026-05-07 20:06 | 46.71004 | 8.59245 | 30552 ft | 449 kts | 195° |
| 2026-05-07 20:07 | 46.68003 | 8.58414 | 29955 ft | 450 kts | 195° |
| 2026-05-07 20:07 | 46.64925 | 8.57562 | 29359 ft | 451 kts | 195° |
| 2026-05-07 20:07 | 46.61868 | 8.56718 | 28769 ft | 448 kts | 195° |
| 2026-05-07 20:07 | 46.58843 | 8.55885 | 28189 ft | 441 kts | 195° |
| 2026-05-07 20:08 | 46.55821 | 8.55052 | 27618 ft | 436 kts | 194° |
| 2026-05-07 20:08 | 46.52869 | 8.54239 | 27073 ft | 433 kts | 194° |
| 2026-05-07 20:08 | 46.49910 | 8.53424 | 26520 ft | 431 kts | 194° |
| 2026-05-07 20:08 | 46.47006 | 8.52626 | 25974 ft | 428 kts | 194° |
| 2026-05-07 20:09 | 46.44083 | 8.51824 | 25437 ft | 424 kts | 194° |
| 2026-05-07 20:09 | 46.41180 | 8.51028 | 24897 ft | 422 kts | 194° |
| 2026-05-07 20:09 | 46.38318 | 8.50244 | 24371 ft | 419 kts | 194° |
| 2026-05-07 20:10 | 46.32659 | 8.48696 | 23326 ft | 414 kts | 193° |
| 2026-05-07 20:10 | 46.29843 | 8.47930 | 22820 ft | 411 kts | 192° |
| 2026-05-07 20:10 | 46.27011 | 8.47542 | 22352 ft | 411 kts | 182° |
| 2026-05-07 20:10 | 46.24137 | 8.47797 | 21789 ft | 412 kts | 177° |
| 2026-05-07 20:11 | 46.21325 | 8.48154 | 21230 ft | 408 kts | 177° |
| 2026-05-07 20:11 | 46.18525 | 8.48524 | 20701 ft | 402 kts | 177° |
| 2026-05-07 20:11 | 46.15736 | 8.48904 | 20195 ft | 399 kts | 176° |
| 2026-05-07 20:11 | 46.12980 | 8.49288 | 19716 ft | 398 kts | 176° |
| 2026-05-07 20:12 | 46.10280 | 8.50039 | 19249 ft | 398 kts | 163° |
| 2026-05-07 20:12 | 46.07679 | 8.51395 | 18709 ft | 397 kts | 161° |
| 2026-05-07 20:12 | 46.05094 | 8.52760 | 18171 ft | 393 kts | 161° |
| 2026-05-07 20:12 | 46.02554 | 8.54114 | 17649 ft | 388 kts | 161° |
| 2026-05-07 20:13 | 46.00063 | 8.55446 | 17172 ft | 385 kts | 161° |
| 2026-05-07 20:13 | 45.97565 | 8.56784 | 16701 ft | 384 kts | 161° |
| 2026-05-07 20:13 | 45.95039 | 8.58138 | 16186 ft | 382 kts | 160° |
| 2026-05-07 20:13 | 45.92585 | 8.59454 | 15712 ft | 378 kts | 160° |
| 2026-05-07 20:14 | 45.90185 | 8.60886 | 15186 ft | 377 kts | 152° |
| 2026-05-07 20:14 | 45.88044 | 8.63042 | 14719 ft | 373 kts | 142° |
| 2026-05-07 20:14 | 45.86031 | 8.65347 | 14231 ft | 371 kts | 142° |
| 2026-05-07 20:14 | 45.84011 | 8.67662 | 13737 ft | 369 kts | 141° |
| 2026-05-07 20:15 | 45.82036 | 8.69936 | 13284 ft | 366 kts | 141° |
| 2026-05-07 20:15 | 45.80041 | 8.72237 | 12812 ft | 364 kts | 141° |
| 2026-05-07 20:15 | 45.78146 | 8.74425 | 12366 ft | 361 kts | 141° |
| 2026-05-07 20:15 | 45.76128 | 8.76578 | 11898 ft | 359 kts | 149° |
| 2026-05-07 20:16 | 45.73985 | 8.78239 | 11717 ft | 344 kts | 151° |
| 2026-05-07 20:16 | 45.71890 | 8.79877 | 11203 ft | 341 kts | 151° |
| 2026-05-07 20:16 | 45.69828 | 8.81475 | 10700 ft | 337 kts | 151° |
| 2026-05-07 20:16 | 45.67792 | 8.83047 | 10110 ft | 321 kts | 151° |
| 2026-05-07 20:17 | 45.65881 | 8.84518 | 9605 ft | 304 kts | 151° |
| 2026-05-07 20:17 | 45.64047 | 8.85928 | 9155 ft | 295 kts | 151° |
| 2026-05-07 20:17 | 45.62228 | 8.87284 | 8657 ft | 297 kts | 157° |
| 2026-05-07 20:17 | 45.60233 | 8.88046 | 8170 ft | 298 kts | 168° |
| 2026-05-07 20:18 | 45.58223 | 8.88612 | 7690 ft | 299 kts | 168° |
| 2026-05-07 20:18 | 45.56183 | 8.89191 | 7030 ft | 294 kts | 168° |
| 2026-05-07 20:18 | 45.54184 | 8.89746 | 6283 ft | 289 kts | 168° |
| 2026-05-07 20:18 | 45.52245 | 8.90279 | 5548 ft | 285 kts | 168° |
| 2026-05-07 20:19 | 45.50312 | 8.90808 | 4815 ft | 281 kts | 168° |
| 2026-05-07 20:19 | 45.48405 | 8.91123 | 4087 ft | 278 kts | 185° |
| 2026-05-07 20:19 | 45.46588 | 8.90324 | 3395 ft | 274 kts | 213° |
| 2026-05-07 20:19 | 45.45307 | 8.88453 | 2996 ft | 258 kts | 244° |
| 2026-05-07 20:20 | 45.44683 | 8.86167 | 2800 ft | 239 kts | 255° |
| 2026-05-07 20:20 | 45.44289 | 8.83953 | 2591 ft | 225 kts | 258° |
| 2026-05-07 20:20 | 45.44136 | 8.81826 | 2587 ft | 207 kts | 279° |
| 2026-05-07 20:20 | 45.44685 | 8.80003 | 2667 ft | 207 kts | 307° |
| 2026-05-07 20:21 | 45.45623 | 8.78351 | 2682 ft | 214 kts | 319° |
| 2026-05-07 20:21 | 45.46949 | 8.77536 | 2702 ft | 205 kts | 353° |
| 2026-05-07 20:21 | 45.48302 | 8.77288 | 2678 ft | 191 kts | 352° |
| 2026-05-07 20:21 | 45.49600 | 8.76976 | 2691 ft | 186 kts | 351° |
| 2026-05-07 20:22 | 45.50891 | 8.76651 | 2726 ft | 191 kts | 351° |
| 2026-05-07 20:22 | 45.52227 | 8.76301 | 2540 ft | 197 kts | 350° |
| 2026-05-07 20:22 | 45.53548 | 8.75947 | 2273 ft | 186 kts | 349° |
| 2026-05-07 20:22 | 45.54749 | 8.75620 | 2075 ft | 168 kts | 349° |
| 2026-05-07 20:23 | 45.55857 | 8.75316 | 1883 ft | 158 kts | 349° |
| 2026-05-07 20:23 | 45.56918 | 8.75024 | 1642 ft | 148 kts | 349° |
| 2026-05-07 20:23 | 45.57894 | 8.74757 | 1432 ft | 139 kts | 349° |
| 2026-05-07 20:23 | 45.58844 | 8.74496 | 1269 ft | 141 kts | 348° |
| 2026-05-07 20:24 | 45.59837 | 8.74222 | 1080 ft | 146 kts | 350° |
| 2026-05-07 20:24 | 45.60819 | 8.73972 | 877 ft | 141 kts | 346° |
| 2026-05-07 20:24 | 45.61755 | 8.73708 | 729 ft | 135 kts | 346° |
| 2026-05-07 20:24 | 45.62640 | 8.73461 | 724 ft | 110 kts | 350° |
| 2026-05-07 20:25 | 45.63168 | 8.73317 | 735 ft | 47 kts | 349° |
| 2026-05-07 20:25 | 45.63461 | 8.73236 | 741 ft | 32 kts | 348° |
| 2026-05-07 20:25 | 45.63632 | 8.73159 | 745 ft | 22 kts | 331° |
| 2026-05-07 20:25 | 45.63754 | 8.73035 | 748 ft | 20 kts | 314° |
| 2026-05-07 20:26 | 45.63835 | 8.72885 | 751 ft | 17 kts | 303° |
| 2026-05-07 20:26 | 45.63902 | 8.72746 | 753 ft | 15 kts | 302° |
| 2026-05-07 20:26 | 45.63949 | 8.72628 | 754 ft | 12 kts | 290° |
| 2026-05-07 20:26 | 45.63952 | 8.72510 | 755 ft | 11 kts | 260° |
| 2026-05-07 20:27 | 45.63936 | 8.72397 | 756 ft | 12 kts | 260° |
| 2026-05-07 20:27 | 45.63921 | 8.72267 | 756 ft | 14 kts | 264° |
| 2026-05-07 20:27 | 45.63916 | 8.72118 | 758 ft | 15 kts | 268° |
| 2026-05-07 20:27 | 45.63905 | 8.71959 | 759 ft | 12 kts | 259° |
| 2026-05-07 20:28 | 45.63876 | 8.71864 | 759 ft | 10 kts | 227° |
| 2026-05-07 20:28 | 45.63800 | 8.71828 | 758 ft | 14 kts | 171° |
| 2026-05-07 20:28 | 45.63677 | 8.71861 | 755 ft | 20 kts | 169° |
| 2026-05-07 20:28 | 45.63513 | 8.71906 | 750 ft | 26 kts | 169° |
| 2026-05-07 20:29 | 45.63315 | 8.71961 | 746 ft | 30 kts | 169° |
| 2026-05-07 20:29 | 45.63126 | 8.72012 | 742 ft | 30 kts | 169° |
| 2026-05-07 20:29 | 45.62934 | 8.72064 | 738 ft | 29 kts | 169° |
| 2026-05-07 20:29 | 45.62733 | 8.72121 | 734 ft | 29 kts | 169° |
| 2026-05-07 20:30 | 45.62530 | 8.72178 | 731 ft | 29 kts | 169° |
| 2026-05-07 20:30 | 45.62330 | 8.72232 | 727 ft | 29 kts | 170° |
| 2026-05-07 20:30 | 45.62125 | 8.72288 | 722 ft | 30 kts | 169° |
| 2026-05-07 20:30 | 45.61916 | 8.72346 | 717 ft | 30 kts | 168° |
| 2026-05-07 20:31 | 45.61703 | 8.72405 | 712 ft | 31 kts | 169° |
| 2026-05-07 20:31 | 45.61483 | 8.72467 | 707 ft | 32 kts | 169° |
| 2026-05-07 20:31 | 45.61310 | 8.72516 | 703 ft | 17 kts | 168° |
| 2026-05-07 20:31 | 45.61195 | 8.72547 | 700 ft | 17 kts | 171° |
| 2026-05-07 20:32 | 45.61136 | 8.72558 | 699 ft | 5 kts | 190° |
| 2026-05-07 20:32 | 45.61121 | 8.72527 | 699 ft | 4 kts | 275° |
| 2026-05-07 20:32 | 45.61123 | 8.72477 | 699 ft | 6 kts | 266° |
| 2026-05-07 20:32 | 45.61113 | 8.72396 | 699 ft | 10 kts | 259° |
| 2026-05-07 20:33 | 45.61100 | 8.72296 | 700 ft | 6 kts | 268° |
| 2026-05-07 20:33 | 45.61122 | 8.72249 | 700 ft | 6 kts | 312° |
| 2026-05-07 20:33 | 45.61136 | 8.72194 | 701 ft | 6 kts | 262° |
| 2026-05-07 20:33 | 45.61127 | 8.72126 | 701 ft | 7 kts | 260° |
| 2026-05-07 20:34 | 45.61116 | 8.72051 | 701 ft | 7 kts | 258° |
| 2026-05-07 20:34 | 45.61108 | 8.71990 | 701 ft | 1 kts | 259° |
| 2026-05-07 20:34 | 45.61108 | 8.71989 | 701 ft | 0 kts | 259° |